Samut Sakhon, Thailand
Current Conditions -  °F | °C
As of 9:30 PM on Friday 24 Oct 2014 (Local Time) from VTBS Reporting Station
Thunderstorm Thunderstorm  
Wind Chill: 79°   Ceiling: 12000
Heat Index: 82°   Visibility: 6mi
Dew Point: 72°   Wind: 7mph
Humidity: 78%   Direction: 360°N
Pressure: 29.88"   Gusts: NA
Location:  13.54°N, 100.28°E
Report Text: VTBS 241430Z 36006KT 300V080 9999 TS FEW020CB SCT035 BKN120 26/22 Q1012 NOSIG
Loading
Personal Weather Stations






























Interactive Weather Map
Tropical Storm Tracking
New forecast layout! Learn more

10-Day Weather Forecast

Advertisements
Track Severe Weather on mobile